地図

経路データ

SID SEASON NUMBER BASIN SUBBASIN NAME ISO_TIME NATURE LAT LON WMO_WIND WMO_PRES WMO_AGENCY TRACK_TYPE DIST2LAND LANDFALL IFLAG USA_AGENCY USA_ATCF_ID USA_LAT USA_LON USA_RECORD USA_STATUS USA_WIND USA_PRES USA_SSHS USA_R34_NE USA_R34_SE USA_R34_SW USA_R34_NW USA_R50_NE USA_R50_SE USA_R50_SW USA_R50_NW USA_R64_NE USA_R64_SE USA_R64_SW USA_R64_NW USA_POCI USA_ROCI USA_RMW USA_EYE TOKYO_LAT TOKYO_LON TOKYO_GRADE TOKYO_WIND TOKYO_PRES TOKYO_R50_DIR TOKYO_R50_LONG TOKYO_R50_SHORT TOKYO_R30_DIR TOKYO_R30_LONG TOKYO_R30_SHORT TOKYO_LAND CMA_LAT CMA_LON CMA_CAT CMA_WIND CMA_PRES HKO_LAT HKO_LON HKO_CAT HKO_WIND HKO_PRES NEWDELHI_LAT NEWDELHI_LON NEWDELHI_GRADE NEWDELHI_WIND NEWDELHI_PRES NEWDELHI_CI NEWDELHI_DP NEWDELHI_POCI REUNION_LAT REUNION_LON REUNION_TYPE REUNION_WIND REUNION_PRES REUNION_TNUM REUNION_CI REUNION_RMW REUNION_R34_NE REUNION_R34_SE REUNION_R34_SW REUNION_R34_NW REUNION_R50_NE REUNION_R50_SE REUNION_R50_SW REUNION_R50_NW REUNION_R64_NE REUNION_R64_SE REUNION_R64_SW REUNION_R64_NW BOM_LAT BOM_LON BOM_TYPE BOM_WIND BOM_PRES BOM_TNUM BOM_CI BOM_RMW BOM_R34_NE BOM_R34_SE BOM_R34_SW BOM_R34_NW BOM_R50_NE BOM_R50_SE BOM_R50_SW BOM_R50_NW BOM_R64_NE BOM_R64_SE BOM_R64_SW BOM_R64_NW BOM_ROCI BOM_POCI BOM_EYE BOM_POS_METHOD BOM_PRES_METHOD NADI_LAT NADI_LON NADI_CAT NADI_WIND NADI_PRES WELLINGTON_LAT WELLINGTON_LON WELLINGTON_WIND WELLINGTON_PRES DS824_LAT DS824_LON DS824_STAGE DS824_WIND DS824_PRES TD9636_LAT TD9636_LON TD9636_STAGE TD9636_WIND TD9636_PRES TD9635_LAT TD9635_LON TD9635_WIND TD9635_PRES TD9635_ROCI NEUMANN_LAT NEUMANN_LON NEUMANN_CLASS NEUMANN_WIND NEUMANN_PRES MLC_LAT MLC_LON MLC_CLASS MLC_WIND MLC_PRES USA_GUST BOM_GUST BOM_GUST_PER REUNION_GUST REUNION_GUST_PER USA_SEAHGT USA_SEARAD_NE USA_SEARAD_SE USA_SEARAD_SW USA_SEARAD_NW STORM_SPEED STORM_DIR
1985343N04090 1985 114 NI BB NOT_NAMED 1985-12-09 06:00:00 NR 4.20000 90.0000 main 589 576 O_________O___ jtwc_io IO061985 4.20000 90.0000 20 -1 4.20000 90.0000 1 20 4 46
1985343N04090 1985 114 NI BB NOT_NAMED 1985-12-09 09:00:00 NR 4.34998 90.1580 main 565 550 P_________P___ IO061985 4.35251 90.1575 20 -1 4.34745 90.1585 1 20 4 45
1985343N04090 1985 114 NI BB NOT_NAMED 1985-12-09 12:00:00 NR 4.50000 90.3000 main 550 538 O_________O___ jtwc_io IO061985 4.50000 90.3000 20 -1 4.50000 90.3000 1 20 4 40
1985343N04090 1985 114 NI BB NOT_NAMED 1985-12-09 15:00:00 NR 4.65214 90.4131 main 536 524 P_________P___ IO061985 4.64250 90.4150 22 -1 4.66178 90.4112 1 21 4 32
1985343N04090 1985 114 NI BB NOT_NAMED 1985-12-09 18:00:00 NR 4.81647 90.4972 main 524 511 O_________P___ jtwc_io IO061985 4.80000 90.5000 25 -1 4.83294 90.4943 1 22 4 22
1985343N04090 1985 114 NI BB NOT_NAMED 1985-12-09 21:00:00 NR 5.00632 90.5564 main 511 510 P_________P___ IO061985 5.00000 90.5575 25 -1 5.01264 90.5553 1 23 4 15
1985343N04090 1985 114 NI BB NOT_NAMED 1985-12-10 00:00:00 NR 5.20000 90.6000 main 510 498 O_________O___ jtwc_io IO061985 5.20000 90.6000 25 -1 5.20000 90.6000 1 25 4 18
1985343N04090 1985 114 NI BB NOT_NAMED 1985-12-10 03:00:00 NR 5.35952 90.6687 main 498 498 P_________P___ IO061985 5.34250 90.6575 25 -1 5.37654 90.6799 1 25 4 20
1985343N04090 1985 114 NI BB NOT_NAMED 1985-12-10 06:00:00 NR 5.53123 90.7199 main 498 498 O_________P___ jtwc_io IO061985 5.50000 90.7000 25 -1 5.56245 90.7398 1 25 4 10
1985343N04090 1985 114 NI BB NOT_NAMED 1985-12-10 09:00:00 NR 5.74357 90.7424 main 498 498 P_________P___ IO061985 5.72000 90.7300 25 -1 5.76714 90.7548 1 25 5 0
1985343N04090 1985 114 NI BB NOT_NAMED 1985-12-10 12:00:00 NR 6.00000 90.7000 main 500 500 O_________O___ jtwc_io IO061985 6.00000 90.7000 25 -1 6.00000 90.7000 1 25 6 345
1985343N04090 1985 114 NI BB NOT_NAMED 1985-12-10 15:00:00 NR 6.30852 90.5932 main 515 515 P_________P___ IO061985 6.34998 90.5950 27 -1 6.26706 90.5914 1 26 7 335
1985343N04090 1985 114 NI BB NOT_NAMED 1985-12-10 18:00:00 NR 6.63113 90.4036 main 542 542 O_________P___ jtwc_io IO061985 6.70000 90.4000 30 -1 6.56227 90.4072 1 27 8 324
1985343N04090 1985 114 NI BB NOT_NAMED 1985-12-10 21:00:00 NR 6.92066 90.1409 main 582 582 P_________P___ IO061985 6.96498 90.1375 30 -1 6.87635 90.1444 1 28 8 314
1985343N04090 1985 114 NI BB NOT_NAMED 1985-12-11 00:00:00 NR 7.20000 89.8000 main 623 623 O_________O___ jtwc_io IO061985 7.20000 89.8000 30 -1 7.20000 89.8000 1 30 9 307
1985343N04090 1985 114 NI BB NOT_NAMED 1985-12-11 03:00:00 NR 7.47063 89.4160 main 675 675 P_________P___ IO061985 7.42741 89.4448 30 -1 7.51386 89.3871 1 31 10 304
1985343N04090 1985 114 NI BB NOT_NAMED 1985-12-11 06:00:00 NR 7.76757 88.9487 main 738 727 O_________P___ jtwc_io IO061985 7.70000 89.0000 30 -1 7.83513 88.8973 1 32 12 303
1985343N04090 1985 114 NI BB NOT_NAMED 1985-12-11 09:00:00 NR 8.12065 88.3982 main 727 668 P_________P___ IO061985 8.07750 88.4375 32 -1 8.16380 88.3588 1 33 14 303
1985343N04090 1985 114 NI BB NOT_NAMED 1985-12-11 12:00:00 NR 8.50000 87.8000 main 668 612 O_________O___ jtwc_io IO061985 8.50000 87.8000 35 0 8.50000 87.8000 2 35 14 303
1985343N04090 1985 114 NI BB NOT_NAMED 1985-12-11 15:00:00 NR 8.88710 87.1839 main 612 558 P_________P___ IO061985 8.91506 87.1276 37 0 8.85914 87.2402 2 36 14 302
1985343N04090 1985 114 NI BB NOT_NAMED 1985-12-11 18:00:00 NR 9.26133 86.5852 main 561 518 O_________P___ jtwc_io IO061985 9.30000 86.5000 40 0 9.22266 86.6703 2 37 13 303
1985343N04090 1985 114 NI BB NOT_NAMED 1985-12-11 21:00:00 NR 9.59856 86.0675 main 523 488 P_________P___ IO061985 9.62230 86.0198 40 0 9.57481 86.1152 2 38 12 303
1985343N04090 1985 114 NI BB NOT_NAMED 1985-12-12 00:00:00 NR 9.90000 85.6000 main 488 458 O_________O___ jtwc_io IO061985 9.90000 85.6000 40 0 9.90000 85.6000 2 40 11 302
1985343N04090 1985 114 NI BB NOT_NAMED 1985-12-12 03:00:00 NR 10.1598 85.1456 main 453 425 P_________P___ IO061985 10.1575 85.1349 42 0 10.1620 85.1562 2 41 10 300
1985343N04090 1985 114 NI BB NOT_NAMED 1985-12-12 06:00:00 NR 10.3997 84.7271 main 425 410 O_________P___ jtwc_io IO061985 10.4000 84.7000 45 0 10.3994 84.7541 2 42 9 302
1985343N04090 1985 114 NI BB NOT_NAMED 1985-12-12 09:00:00 NR 10.6360 84.3587 main 410 393 P_________P___ IO061985 10.6349 84.3423 45 0 10.6371 84.3750 2 43 9 305
1985343N04090 1985 114 NI BB NOT_NAMED 1985-12-12 12:00:00 NR 10.9000 84.0000 main 393 373 O_________O___ jtwc_io IO061985 10.9000 84.0000 45 0 10.9000 84.0000 2 45 10 308
1985343N04090 1985 114 NI BB NOT_NAMED 1985-12-12 15:00:00 NR 11.2301 83.5977 main 373 341 P_________P___ IO061985 11.2350 83.6075 47 0 11.2253 83.5879 2 46 11 311
1985343N04090 1985 114 NI BB NOT_NAMED 1985-12-12 18:00:00 NR 11.5887 83.1888 main 341 290 O_________P___ jtwc_io IO061985 11.6000 83.2000 50 0 11.5775 83.1776 2 47 11 312
1985343N04090 1985 114 NI BB NOT_NAMED 1985-12-12 21:00:00 NR 11.9530 82.7817 main 288 240 P_________P___ IO061985 11.9650 82.7850 50 0 11.9409 82.7785 2 48 11 313
1985343N04090 1985 114 NI BB NOT_NAMED 1985-12-13 00:00:00 NR 12.3000 82.4000 main 240 206 O_________O___ jtwc_io IO061985 12.3000 82.4000 50 0 12.3000 82.4000 2 50 9 313
1985343N04090 1985 114 NI BB NOT_NAMED 1985-12-13 03:00:00 NR 12.5892 82.0747 main 206 168 P_________P___ IO061985 12.5424 82.0922 50 0 12.6359 82.0571 2 48 9 313
1985343N04090 1985 114 NI BB NOT_NAMED 1985-12-13 06:00:00 NR 12.8823 81.7672 main 168 130 O_________P___ jtwc_io IO061985 12.8000 81.8000 50 0 12.9646 81.7345 2 47 9 316
1985343N04090 1985 114 NI BB NOT_NAMED 1985-12-13 09:00:00 NR 13.2392 81.4386 main 119 86 P_________P___ IO061985 13.1925 81.4576 47 0 13.2860 81.4196 2 46 10 318
1985343N04090 1985 114 NI BB NOT_NAMED 1985-12-13 12:00:00 NR 13.6000 81.1000 main 86 54 O_________O___ jtwc_io IO061985 13.6000 81.1000 45 0 13.6000 81.1000 2 45 9 315
1985343N04090 1985 114 NI BB NOT_NAMED 1985-12-13 15:00:00 NR 13.9053 80.7532 main 55 32 P_________P___ IO061985 13.9149 80.7498 45 0 13.8957 80.7565 2 43 9 311
1985343N04090 1985 114 NI BB NOT_NAMED 1985-12-13 18:00:00 NR 14.1931 80.4032 main 32 0 O_________P___ jtwc_io IO061985 14.2000 80.4000 45 0 14.1863 80.4064 2 42 9 311
1985343N04090 1985 114 NI BB NOT_NAMED 1985-12-13 21:00:00 NR 14.4881 80.0515 main 0 0 P_________P___ IO061985 14.4924 80.0499 42 0 14.4837 80.0531 2 41 9 312
1985343N04090 1985 114 NI BB NOT_NAMED 1985-12-14 00:00:00 NR 14.8000 79.7000 main 0 0 O_________O___ jtwc_io IO061985 14.8000 79.7000 40 0 14.8000 79.7000 2 40 9 314
1985343N04090 1985 114 NI BB NOT_NAMED 1985-12-14 03:00:00 NR 15.1413 79.3499 main 0 0 P_________P___ IO061985 15.1401 79.3503 35 0 15.1424 79.3494 2 35 10 316
1985343N04090 1985 114 NI BB NOT_NAMED 1985-12-14 06:00:00 NR 15.5000 79.0000 main 0 O_________O___ jtwc_io IO061985 15.5000 79.0000 30 -1 15.5000 79.0000 1 30 10 317

IBTrACS Databaseについて

本データベースは、米国NOAAが公開する1842年以降の世界の熱帯低気圧のベストトラックデータアーカイブInternational Best Track Archive for Climate Stewardship (IBTrACS)を、ウェブで閲覧しやすい形式に変換したものです。

最終更新日:2021-10-08